Commit Graph
43 Commits
Author SHA1 Message Date
stud126169 7b5e8d50e8 Обновить Encoder.h 2024-03-17 17:24:30 +00:00
stud126169 6b68212902 Обновить Encoder.cpp 2024-03-17 17:24:08 +00:00
stud126169 c18400453d Добавить Encoder.cpp 2024-03-17 17:23:49 +00:00
stud126169 d96385496e Обновить Encoder.h 2024-03-01 17:18:14 +00:00
stud126169 40bd72bc4d Добавить timers.h 2024-02-29 10:33:29 +00:00
stud126169 9703f5efc0 Обновить main.c 2024-02-29 10:32:06 +00:00
stud126169 a294a2b990 Обновить Encoder.h 2024-02-29 10:31:11 +00:00
stud126169 1ec7720575 Удалить Encoder.c 2024-02-29 10:30:46 +00:00
stud126169 5470163ff0 Обновить DHT_22.h 2024-02-29 10:30:13 +00:00
stud126169 deb41c7920 Удалить DHT_22.c 2024-02-29 10:27:53 +00:00
stud126169 a4ff84dd9c Обновить Encoder.c 2024-02-26 20:34:21 +00:00
stud126169 4a24f8efda Обновить Encoder.c 2024-02-25 23:22:08 +00:00
stud126169 b61a098ea6 Обновить Encoder.c 2024-02-25 17:46:04 +00:00
stud126169 d893fa4f23 Обновить Encoder.c 2024-02-25 12:34:39 +00:00
stud126169 f75998e479 Обновить Encoder.c 2024-02-22 13:24:57 +00:00
stud127373 a37198877a Обновить Encoder.c 2024-02-22 08:25:12 +00:00
stud126169 6ea86aa70f Обновить Encoder.c 2024-02-21 22:01:05 +00:00
stud127373 b77eb4bf4f Обновить DHT_22.c 2024-02-19 20:24:40 +00:00
stud126169 965250ecd0 Обновить Encoder.c 2024-02-18 12:00:30 +00:00
stud126169 f3ee7efb61 Обновить Encoder.c 2024-02-17 22:50:59 +00:00
stud126169 40c876d282 Обновить Encoder.c
Переделал код согласно замечаниям
2024-02-14 16:08:48 +00:00
stud126169 52904681ef Загрузить файлы в «/» 2024-02-09 17:41:26 +00:00
stud126169 37a61251b8 Обновить DHT_22.c 2024-02-09 17:39:19 +00:00
stud126169 18ecbdf90f Загрузить файлы в «/» 2024-02-09 17:38:08 +00:00
stud127373 b2bfc7854b Обновить DHT 22 .c
Добавила функцию таймера вместо delay(200), переделала код чтобы он возвращал значение температуры и влажности по отдельности для заголовочного файла. В симуляторе все работает корректно
2024-02-09 13:24:25 +00:00
stud126169 c1e95c9295 Обновить Encoder.c 2024-02-02 16:50:06 +00:00
stud126169 1862a95a8e Обновить Encoder.h 2024-02-02 16:45:46 +00:00
stud126169 073d5e43f6 Загрузил(а) файлы в '' 2023-06-26 09:29:26 +00:00
stud126169 381f09f39f Изменил(а) на 'Encoder.c' 2023-06-26 09:28:15 +00:00
stud126169 10f09acabf Изменил(а) на 'Encoder.c' 2023-06-25 17:39:11 +00:00
stud126169 86375cea8f Изменил(а) на 'Encoder.c'
Загрузил нужную версию файла
2023-06-25 17:35:07 +00:00
stud127373 b1924b22fb Датчик температуры и влажности DHT 22 2023-06-24 13:07:34 +00:00
stud126169 7d8e40431c Загрузил код для получения данных с энкодера 2023-06-24 10:49:32 +00:00
stud126167 f9a2f998b6 Изменил(а) на 'README.md' 2023-05-11 14:09:26 +00:00
stud126167 46d34a4161 Изменил(а) на 'README.md' 2023-05-11 14:08:51 +00:00
stud126167 6679d1a827 Изменил(а) на 'README.md' 2023-05-11 14:08:20 +00:00
stud126167 60708a642d Изменил(а) на 'README.md' 2023-05-11 14:00:51 +00:00
Rchurakov 4e25cc047b potentiometer add 2023-03-30 17:00:05 +03:00
stud126167 27e20c0bf1 Изменил(а) на 'README.md' 2023-02-28 20:38:07 +00:00
stud126167 94f2cabcc7 Изменил(а) на 'README.md' 2023-02-28 15:00:10 +00:00
Класс 435ed6afb8 three 2023-02-17 09:25:57 +03:00
Класс 07ec2d6718 second commit 2023-02-17 09:23:24 +03:00
Класс 55e45c4fbf first comi 2023-02-17 09:18:47 +03:00